Time;durP1;ratioP1;P1;durP2;ratioP2;P2;SDS_P1;SDS_P2;PMS_P1;PMS_P2;Temp;Humidity;BMP_temperature;BMP_pressure;BME280_temperature;BME280_humidity;BME280_pressure;Samples;Min_cycle;Max_cycle;Signal;HPM_P1;HPM_P2
2023/11/13 00:01:08;;;;;;;3.93;2.33;;;;;;;;;;5047000;28;20753;-82
2023/11/13 00:03:34;;;;;;;2.60;1.90;;;;;;;;;;5046905;28;20399;-82
2023/11/13 00:06:00;;;;;;;3.47;1.90;;;;;;;;;;5047073;28;20486;-81
2023/11/13 00:08:26;;;;;;;3.37;1.73;;;;;;;;;;5047428;28;20480;-82
2023/11/13 00:10:52;;;;;;;3.42;1.58;;;;;;;;;;5047202;28;20395;-83
2023/11/13 00:13:18;;;;;;;2.35;1.52;;;;;;;;;;5047614;28;20410;-83
2023/11/13 00:15:47;;;;;;;2.70;1.30;;;;;;;;;;5048364;28;20405;-82
2023/11/13 00:18:14;;;;;;;1.70;1.20;;;;;;;;;;5047275;28;20443;-82
2023/11/13 00:20:40;;;;;;;1.17;1.00;;;;;;;;;;5047641;28;20745;-82
2023/11/13 00:23:06;;;;;;;0.98;0.90;;;;;;;;;;5046224;28;20415;-82
2023/11/13 00:25:32;;;;;;;1.40;0.73;;;;;;;;;;5039463;28;20390;-82
2023/11/13 00:27:59;;;;;;;1.73;0.80;;;;;;;;;;5048113;28;20382;-82
2023/11/13 00:30:25;;;;;;;0.93;0.70;;;;;;;;;;5047911;28;20466;-82
2023/11/13 00:32:51;;;;;;;0.98;0.60;;;;;;;;;;5047787;28;20794;-83
2023/11/13 00:35:17;;;;;;;1.20;0.70;;;;;;;;;;5046749;28;20376;-82
2023/11/13 00:37:43;;;;;;;1.00;0.50;;;;;;;;;;5046072;28;20406;-82
2023/11/13 00:40:10;;;;;;;1.25;0.60;;;;;;;;;;5046230;28;20387;-82
2023/11/13 00:42:36;;;;;;;0.63;0.50;;;;;;;;;;5046868;28;20820;-82
2023/11/13 00:45:02;;;;;;;1.17;0.68;;;;;;;;;;5028997;28;20392;-82
2023/11/13 00:47:28;;;;;;;2.22;0.70;;;;;;;;;;5046160;28;20424;-82
2023/11/13 00:49:54;;;;;;;0.88;0.50;;;;;;;;;;5047016;28;20438;-82
2023/11/13 00:52:20;;;;;;;1.30;0.60;;;;;;;;;;5046213;28;20398;-82
2023/11/13 00:54:46;;;;;;;1.00;0.68;;;;;;;;;;5046423;28;20414;-82
2023/11/13 00:57:12;;;;;;;0.75;0.70;;;;;;;;;;5045979;28;20418;-83
2023/11/13 00:59:37;;;;;;;1.43;0.70;;;;;;;;;;5047278;28;20391;-82
2023/11/13 01:02:04;;;;;;;0.90;0.65;;;;;;;;;;5046223;28;20441;-82
2023/11/13 01:04:30;;;;;;;1.52;0.60;;;;;;;;;;5046952;28;20437;-82
2023/11/13 01:06:57;;;;;;;0.93;0.40;;;;;;;;;;5045829;28;20430;-82
2023/11/13 01:09:26;;;;;;;1.08;0.40;;;;;;;;;;5046235;28;20406;-82
2023/11/13 01:11:52;;;;;;;1.50;0.60;;;;;;;;;;5046158;28;20409;-82
2023/11/13 01:14:19;;;;;;;0.68;0.50;;;;;;;;;;5045992;28;20410;-82
2023/11/13 01:16:45;;;;;;;1.50;0.60;;;;;;;;;;5045992;28;20819;-82
2023/11/13 01:19:11;;;;;;;0.95;0.70;;;;;;;;;;5046307;28;20387;-82
2023/11/13 01:21:37;;;;;;;1.20;0.60;;;;;;;;;;5046037;28;20431;-82
2023/11/13 01:24:03;;;;;;;0.53;0.53;;;;;;;;;;5046018;28;20375;-82
2023/11/13 01:26:30;;;;;;;0.68;0.45;;;;;;;;;;5045547;28;20387;-82
2023/11/13 01:28:56;;;;;;;1.67;0.50;;;;;;;;;;5046435;28;20395;-82
2023/11/13 01:31:22;;;;;;;1.20;0.60;;;;;;;;;;5045169;28;20394;-83
2023/11/13 01:33:48;;;;;;;3.03;0.52;;;;;;;;;;5045872;28;20915;-82
2023/11/13 01:36:14;;;;;;;1.13;0.50;;;;;;;;;;5045470;28;20391;-82
2023/11/13 01:38:40;;;;;;;2.00;0.50;;;;;;;;;;5045597;28;20383;-82
2023/11/13 01:41:06;;;;;;;1.30;0.60;;;;;;;;;;5045806;28;20861;-82
2023/11/13 01:43:32;;;;;;;0.70;0.40;;;;;;;;;;5045230;28;20397;-83
2023/11/13 01:45:58;;;;;;;1.58;0.60;;;;;;;;;;5045547;28;20414;-81
2023/11/13 01:48:25;;;;;;;1.75;0.55;;;;;;;;;;5027214;28;20380;-82
2023/11/13 01:50:52;;;;;;;1.70;0.50;;;;;;;;;;5045826;28;20417;-82
2023/11/13 01:53:20;;;;;;;1.73;0.73;;;;;;;;;;5046683;28;20839;-82
2023/11/13 01:55:46;;;;;;;2.22;0.80;;;;;;;;;;5046293;28;20405;-83
2023/11/13 01:58:13;;;;;;;2.72;0.93;;;;;;;;;;5046083;28;20403;-82
2023/11/13 02:00:39;;;;;;;2.03;0.90;;;;;;;;;;5045743;28;20391;-82
2023/11/13 02:03:06;;;;;;;1.38;0.75;;;;;;;;;;5045536;28;20407;-82
2023/11/13 02:05:32;;;;;;;1.75;0.90;;;;;;;;;;5044733;28;20449;-82
2023/11/13 02:07:58;;;;;;;1.80;0.90;;;;;;;;;;5045368;28;20407;-82
2023/11/13 02:10:26;;;;;;;3.00;1.20;;;;;;;;;;5044377;28;20713;-82
2023/11/13 02:12:53;;;;;;;2.35;0.90;;;;;;;;;;5045701;28;20390;-82
2023/11/13 02:15:19;;;;;;;2.45;1.13;;;;;;;;;;5044656;28;20387;-82
2023/11/13 02:18:06;;;;;;;3.08;1.20;;;;;;;;;;5045319;28;20479;-81
2023/11/13 02:20:32;;;;;;;3.30;1.10;;;;;;;;;;5045299;28;20387;-82
2023/11/13 02:22:59;;;;;;;3.45;1.00;;;;;;;;;;5045803;28;20853;-83
2023/11/13 02:25:26;;;;;;;2.47;1.00;;;;;;;;;;5045579;28;20391;-82
2023/11/13 02:27:53;;;;;;;2.70;0.93;;;;;;;;;;5045802;28;20391;-83
2023/11/13 02:30:20;;;;;;;2.30;0.93;;;;;;;;;;5045537;28;20384;-82
2023/11/13 02:32:46;;;;;;;2.33;0.93;;;;;;;;;;5045878;28;20726;-82
2023/11/13 02:35:14;;;;;;;2.42;0.95;;;;;;;;;;5044892;28;20391;-83
2023/11/13 02:37:40;;;;;;;3.50;1.00;;;;;;;;;;5045579;28;20431;-83
2023/11/13 02:40:09;;;;;;;2.63;1.10;;;;;;;;;;5042899;28;20483;-82
2023/11/13 02:42:35;;;;;;;4.70;1.30;;;;;;;;;;5038761;28;20379;-82
2023/11/13 02:45:01;;;;;;;2.65;0.90;;;;;;;;;;5038492;28;20698;-82
2023/11/13 02:47:27;;;;;;;3.75;1.30;;;;;;;;;;5039594;28;20383;-83
2023/11/13 02:49:53;;;;;;;4.20;1.27;;;;;;;;;;5040100;28;20466;-82
2023/11/13 02:52:19;;;;;;;2.33;0.90;;;;;;;;;;5040395;28;20383;-82
2023/11/13 02:54:45;;;;;;;2.30;1.10;;;;;;;;;;5040786;28;20444;-82
2023/11/13 02:57:11;;;;;;;3.97;1.42;;;;;;;;;;5039899;28;20411;-82
2023/11/13 02:59:37;;;;;;;5.13;1.40;;;;;;;;;;5040736;28;20387;-82
2023/11/13 03:02:03;;;;;;;3.70;1.10;;;;;;;;;;5040590;28;20445;-83
2023/11/13 03:04:30;;;;;;;3.92;1.30;;;;;;;;;;5041856;28;20728;-82
2023/11/13 03:06:56;;;;;;;3.60;1.20;;;;;;;;;;5042217;28;20390;-82
2023/11/13 03:09:22;;;;;;;3.28;1.15;;;;;;;;;;5041781;28;20383;-83
2023/11/13 03:11:48;;;;;;;5.53;1.48;;;;;;;;;;5043328;28;20390;-82
2023/11/13 03:14:14;;;;;;;3.55;1.30;;;;;;;;;;5043910;28;20437;-82
2023/11/13 03:16:40;;;;;;;4.03;1.15;;;;;;;;;;5042317;28;20437;-83
2023/11/13 03:19:06;;;;;;;3.60;1.50;;;;;;;;;;5043275;28;20429;-82
2023/11/13 03:21:32;;;;;;;2.63;1.23;;;;;;;;;;5044827;28;20394;-83
2023/11/13 03:23:58;;;;;;;4.50;1.30;;;;;;;;;;5043503;28;20729;-82
2023/11/13 03:26:28;;;;;;;3.38;1.30;;;;;;;;;;5043464;28;20422;-82
2023/11/13 03:28:54;;;;;;;4.43;1.20;;;;;;;;;;5043871;28;20384;-83
2023/11/13 03:31:20;;;;;;;4.40;1.10;;;;;;;;;;5043513;28;20462;-83
2023/11/13 03:33:46;;;;;;;3.17;1.30;;;;;;;;;;5043833;28;20383;-82
2023/11/13 03:36:12;;;;;;;3.47;1.35;;;;;;;;;;5044212;28;20390;-82
2023/11/13 03:38:38;;;;;;;4.22;1.10;;;;;;;;;;5027245;28;20796;-83
2023/11/13 03:41:04;;;;;;;2.92;1.25;;;;;;;;;;5044431;28;20379;-83
2023/11/13 03:43:30;;;;;;;5.60;1.40;;;;;;;;;;5044723;28;20422;-83
2023/11/13 03:45:56;;;;;;;2.73;1.20;;;;;;;;;;5044771;28;20402;-82
2023/11/13 03:48:22;;;;;;;3.58;1.20;;;;;;;;;;5044731;28;20470;-83
2023/11/13 03:50:48;;;;;;;3.83;1.05;;;;;;;;;;5045125;28;20394;-82
2023/11/13 03:53:14;;;;;;;4.53;1.20;;;;;;;;;;5045572;28;20447;-82
2023/11/13 03:55:40;;;;;;;3.13;1.30;;;;;;;;;;5045370;28;20870;-82
2023/11/13 03:58:06;;;;;;;5.20;1.20;;;;;;;;;;5044649;28;20440;-83
2023/11/13 04:00:34;;;;;;;4.15;1.50;;;;;;;;;;5044995;28;20450;-83
2023/11/13 04:03:00;;;;;;;4.18;1.40;;;;;;;;;;5044576;28;20391;-83
2023/11/13 04:05:28;;;;;;;5.50;1.37;;;;;;;;;;5043936;28;20468;-82
2023/11/13 04:07:54;;;;;;;4.78;1.25;;;;;;;;;;5044767;28;20393;-83
2023/11/13 04:10:20;;;;;;;3.72;1.20;;;;;;;;;;5045141;28;20371;-83
2023/11/13 04:12:47;;;;;;;5.28;1.50;;;;;;;;;;5045081;28;20417;-82
2023/11/13 04:15:13;;;;;;;5.20;1.50;;;;;;;;;;5044760;28;20375;-83
2023/11/13 04:17:40;;;;;;;4.75;1.30;;;;;;;;;;5044512;28;20445;-83
2023/11/13 04:20:07;;;;;;;4.57;1.23;;;;;;;;;;5045442;28;20413;-83
2023/11/13 04:22:36;;;;;;;3.78;1.23;;;;;;;;;;5045308;28;20407;-83
2023/11/13 04:25:03;;;;;;;3.47;1.00;;;;;;;;;;5044978;28;20391;-83
2023/11/13 04:27:29;;;;;;;4.20;1.20;;;;;;;;;;5044763;28;20785;-83
2023/11/13 04:29:56;;;;;;;3.33;1.25;;;;;;;;;;5044513;28;20425;-83
2023/11/13 04:32:22;;;;;;;3.33;1.30;;;;;;;;;;5045610;28;20466;-83
2023/11/13 04:34:49;;;;;;;3.90;1.23;;;;;;;;;;5047963;28;20387;-82
2023/11/13 04:37:15;;;;;;;3.60;1.00;;;;;;;;;;5048204;28;20437;-83
2023/11/13 04:39:41;;;;;;;2.78;0.93;;;;;;;;;;5048100;28;20402;-83
2023/11/13 04:42:07;;;;;;;2.10;1.00;;;;;;;;;;5048371;28;20466;-82
2023/11/13 04:44:33;;;;;;;3.53;1.00;;;;;;;;;;5048768;28;20418;-83
2023/11/13 04:46:59;;;;;;;3.45;1.20;;;;;;;;;;5049148;28;20437;-83
2023/11/13 04:49:25;;;;;;;2.65;1.20;;;;;;;;;;5049201;28;20949;-82
2023/11/13 04:51:51;;;;;;;3.40;1.03;;;;;;;;;;5047681;28;20391;-83
2023/11/13 04:54:17;;;;;;;3.08;1.08;;;;;;;;;;5047604;28;20379;-82
2023/11/13 04:56:43;;;;;;;2.17;1.13;;;;;;;;;;5047597;28;20448;-82
2023/11/13 04:59:09;;;;;;;2.90;1.08;;;;;;;;;;5048251;28;20426;-83
2023/11/13 05:01:39;;;;;;;2.58;1.42;;;;;;;;;;5047923;28;20379;-83
2023/11/13 05:04:08;;;;;;;5.10;1.27;;;;;;;;;;5048101;28;20438;-82
2023/11/13 05:06:35;;;;;;;2.85;1.20;;;;;;;;;;5029679;28;20444;-82
2023/11/13 05:09:03;;;;;;;3.90;1.00;;;;;;;;;;5048346;28;20396;-82
2023/11/13 05:11:29;;;;;;;4.40;1.52;;;;;;;;;;5047442;28;20398;-82
2023/11/13 05:13:55;;;;;;;4.20;1.20;;;;;;;;;;5047624;28;20399;-82
2023/11/13 05:16:21;;;;;;;3.60;1.50;;;;;;;;;;5048074;28;20415;-82
2023/11/13 05:18:48;;;;;;;3.67;1.27;;;;;;;;;;5048518;28;20938;-82
2023/11/13 05:21:14;;;;;;;3.53;1.60;;;;;;;;;;5046347;28;20395;-82
2023/11/13 05:23:40;;;;;;;3.30;1.23;;;;;;;;;;5047267;28;20383;-82
2023/11/13 05:26:06;;;;;;;3.63;1.30;;;;;;;;;;5048008;28;20394;-82
2023/11/13 05:28:32;;;;;;;2.83;1.38;;;;;;;;;;5049012;28;20895;-83
2023/11/13 05:30:58;;;;;;;3.77;1.17;;;;;;;;;;5047312;28;20515;-82
2023/11/13 05:33:24;;;;;;;5.95;1.60;;;;;;;;;;5047096;28;20403;-82
2023/11/13 05:35:50;;;;;;;3.42;1.35;;;;;;;;;;5028338;28;20407;-82
2023/11/13 05:38:16;;;;;;;4.27;1.37;;;;;;;;;;5047461;28;20503;-83
2023/11/13 05:40:43;;;;;;;2.70;1.45;;;;;;;;;;5047367;28;20407;-82
2023/11/13 05:43:09;;;;;;;5.03;1.50;;;;;;;;;;5047052;28;20482;-81
2023/11/13 05:45:36;;;;;;;3.17;1.30;;;;;;;;;;5047406;28;20470;-82
2023/11/13 05:48:02;;;;;;;3.33;1.20;;;;;;;;;;5048272;28;20393;-82
2023/11/13 05:50:29;;;;;;;1.83;1.27;;;;;;;;;;5048317;28;20465;-83
2023/11/13 05:52:55;;;;;;;1.83;1.33;;;;;;;;;;5048218;28;20387;-82
2023/11/13 05:55:22;;;;;;;3.40;1.50;;;;;;;;;;5048142;28;20387;-83
2023/11/13 05:57:48;;;;;;;2.72;1.10;;;;;;;;;;5048429;28;20474;-82
2023/11/13 06:00:16;;;;;;;3.15;1.05;;;;;;;;;;5046976;28;20857;-83
2023/11/13 06:02:42;;;;;;;2.50;1.03;;;;;;;;;;5043758;28;20399;-82
2023/11/13 06:05:09;;;;;;;1.90;1.05;;;;;;;;;;5045612;28;20441;-82
2023/11/13 06:07:37;;;;;;;2.45;1.20;;;;;;;;;;5039842;28;20392;-81
2023/11/13 06:10:08;;;;;;;2.50;1.30;;;;;;;;;;5040314;28;20391;-81
2023/11/13 06:12:34;;;;;;;3.20;1.00;;;;;;;;;;5024116;28;20427;-80
2023/11/13 06:15:01;;;;;;;2.40;0.90;;;;;;;;;;5025169;28;20392;-81
2023/11/13 06:17:27;;;;;;;2.10;0.95;;;;;;;;;;5042668;28;20426;-81
2023/11/13 06:19:53;;;;;;;2.60;0.80;;;;;;;;;;5043597;28;20380;-80
2023/11/13 06:22:22;;;;;;;2.17;0.80;;;;;;;;;;5043881;28;20403;-81
2023/11/13 06:24:48;;;;;;;1.63;0.70;;;;;;;;;;5042386;28;20403;-81
2023/11/13 06:27:14;;;;;;;2.15;0.98;;;;;;;;;;5019968;28;20397;-81
2023/11/13 06:29:41;;;;;;;2.28;0.80;;;;;;;;;;5024995;28;20486;-81
2023/11/13 06:32:07;;;;;;;1.55;0.82;;;;;;;;;;5043657;28;20440;-82
2023/11/13 06:34:34;;;;;;;2.53;0.93;;;;;;;;;;5026766;28;20915;-81
2023/11/13 06:37:00;;;;;;;1.50;1.20;;;;;;;;;;5044652;28;20410;-81
2023/11/13 06:39:26;;;;;;;1.55;0.90;;;;;;;;;;5044275;28;20467;-80
2023/11/13 06:41:52;;;;;;;2.05;0.85;;;;;;;;;;5026445;28;20407;-81
2023/11/13 06:44:19;;;;;;;2.55;0.77;;;;;;;;;;5044267;28;20387;-81
2023/11/13 06:46:45;;;;;;;2.83;1.25;;;;;;;;;;5044280;28;20410;-81
2023/11/13 06:49:11;;;;;;;3.63;1.20;;;;;;;;;;5038259;28;20401;-80
2023/11/13 06:51:37;;;;;;;1.92;0.80;;;;;;;;;;5044966;28;20410;-83
2023/11/13 06:54:08;;;;;;;1.20;1.00;;;;;;;;;;5044282;28;20745;-82
2023/11/13 06:56:34;;;;;;;2.30;1.10;;;;;;;;;;5045052;28;20383;-82
2023/11/13 06:59:00;;;;;;;1.57;1.20;;;;;;;;;;5042678;28;20398;-83
2023/11/13 07:01:26;;;;;;;2.00;1.10;;;;;;;;;;5042210;28;20441;-82
2023/11/13 07:03:53;;;;;;;1.90;0.80;;;;;;;;;;5043723;28;20399;-83
2023/11/13 07:06:19;;;;;;;1.23;0.80;;;;;;;;;;5043003;28;20391;-83
2023/11/13 07:08:45;;;;;;;1.13;0.80;;;;;;;;;;5043829;28;20849;-83
2023/11/13 07:11:14;;;;;;;1.40;0.90;;;;;;;;;;5044304;28;20443;-83
2023/11/13 07:13:41;;;;;;;1.15;0.80;;;;;;;;;;5033290;28;20385;-83
2023/11/13 07:16:07;;;;;;;2.20;0.90;;;;;;;;;;5029640;28;20389;-83
2023/11/13 07:18:34;;;;;;;1.20;0.90;;;;;;;;;;5040514;28;20415;-84
2023/11/13 07:21:01;;;;;;;1.47;0.77;;;;;;;;;;5037667;28;20385;-83
2023/11/13 07:23:28;;;;;;;1.50;0.70;;;;;;;;;;5042392;28;20390;-83
2023/11/13 07:25:58;;;;;;;3.65;1.25;;;;;;;;;;5044428;28;20776;-84
2023/11/13 07:28:24;;;;;;;1.17;0.60;;;;;;;;;;5044222;28;20426;-83
2023/11/13 07:30:51;;;;;;;1.73;0.80;;;;;;;;;;5042666;28;20399;-85
2023/11/13 07:33:17;;;;;;;1.05;0.70;;;;;;;;;;5043861;28;20722;-82
2023/11/13 07:35:43;;;;;;;1.30;0.70;;;;;;;;;;5043827;28;20417;-82
2023/11/13 07:38:09;;;;;;;1.92;1.08;;;;;;;;;;5044080;28;20811;-82
2023/11/13 07:40:38;;;;;;;1.70;0.90;;;;;;;;;;5042516;28;20394;-82
2023/11/13 07:43:08;;;;;;;0.70;0.50;;;;;;;;;;5043386;28;20379;-82
2023/11/13 07:45:34;;;;;;;1.13;0.68;;;;;;;;;;5043193;28;20418;-82
2023/11/13 07:48:00;;;;;;;1.33;0.98;;;;;;;;;;5042894;28;20391;-82
2023/11/13 07:50:27;;;;;;;2.20;0.70;;;;;;;;;;5042772;28;20379;-82
2023/11/13 07:52:53;;;;;;;1.27;0.65;;;;;;;;;;5043892;28;20395;-83
2023/11/13 07:55:20;;;;;;;1.95;0.60;;;;;;;;;;5043090;28;20813;-82
2023/11/13 07:57:46;;;;;;;1.30;0.63;;;;;;;;;;5043427;28;20505;-83
2023/11/13 08:00:15;;;;;;;2.20;0.60;;;;;;;;;;5043366;28;20780;-81
2023/11/13 08:02:42;;;;;;;1.27;0.50;;;;;;;;;;5042338;28;20391;-82
2023/11/13 08:05:11;;;;;;;1.02;0.50;;;;;;;;;;5042896;28;20410;-83
2023/11/13 08:07:41;;;;;;;0.70;0.55;;;;;;;;;;5043971;28;20390;-83
2023/11/13 08:10:14;;;;;;;0.35;0.32;;;;;;;;;;5045444;28;21307;-83
2023/11/13 08:12:43;;;;;;;1.15;0.60;;;;;;;;;;5046284;28;20401;-83
2023/11/13 08:15:12;;;;;;;1.23;0.57;;;;;;;;;;5045026;28;20386;-82
2023/11/13 08:17:45;;;;;;;1.60;0.53;;;;;;;;;;5043199;28;20502;-82
2023/11/13 08:20:15;;;;;;;0.93;0.50;;;;;;;;;;5048253;28;20417;-81
2023/11/13 08:22:42;;;;;;;2.25;0.45;;;;;;;;;;5047875;28;20387;-82
2023/11/13 08:25:11;;;;;;;1.90;0.60;;;;;;;;;;5045486;28;20386;-80
2023/11/13 08:27:41;;;;;;;0.97;0.57;;;;;;;;;;5045691;28;20517;-82
2023/11/13 08:30:07;;;;;;;1.00;0.60;;;;;;;;;;5043869;28;20397;-83
2023/11/13 08:32:34;;;;;;;1.50;0.55;;;;;;;;;;5043959;28;20413;-83
2023/11/13 08:35:00;;;;;;;0.80;0.50;;;;;;;;;;5044239;28;20375;-83
2023/11/13 08:37:27;;;;;;;1.13;0.45;;;;;;;;;;5043555;28;20448;-83
2023/11/13 08:39:53;;;;;;;1.67;0.60;;;;;;;;;;5043320;28;20386;-83
2023/11/13 08:42:19;;;;;;;0.98;0.43;;;;;;;;;;5042987;28;20383;-83
2023/11/13 08:44:45;;;;;;;1.58;0.47;;;;;;;;;;5043904;28;20386;-82
2023/11/13 08:47:11;;;;;;;0.90;0.50;;;;;;;;;;5044590;28;20391;-83
2023/11/13 08:49:41;;;;;;;0.98;0.50;;;;;;;;;;5045960;28;20449;-83
2023/11/13 08:52:11;;;;;;;1.00;0.50;;;;;;;;;;5045913;28;20386;-83
2023/11/13 08:54:38;;;;;;;1.60;0.50;;;;;;;;;;5045256;28;20391;-83
2023/11/13 08:57:06;;;;;;;1.13;0.50;;;;;;;;;;5026591;28;20411;-83
2023/11/13 08:59:38;;;;;;;1.37;0.50;;;;;;;;;;5045916;28;20977;-83
2023/11/13 09:02:07;;;;;;;1.10;0.50;;;;;;;;;;5028974;28;20376;-83
2023/11/13 09:04:34;;;;;;;0.93;0.40;;;;;;;;;;5028045;28;20478;-84
2023/11/13 09:07:07;;;;;;;2.00;0.70;;;;;;;;;;5045385;28;20466;-83
2023/11/13 09:09:34;;;;;;;1.10;0.40;;;;;;;;;;5045573;28;20450;-82
2023/11/13 09:12:01;;;;;;;1.02;0.45;;;;;;;;;;5045158;28;20391;-82
2023/11/13 09:14:27;;;;;;;1.60;0.68;;;;;;;;;;5045973;28;20410;-82
2023/11/13 09:16:53;;;;;;;0.88;0.50;;;;;;;;;;5046127;28;20399;-82
2023/11/13 09:19:19;;;;;;;2.30;0.50;;;;;;;;;;5046450;28;20872;-83
2023/11/13 09:21:45;;;;;;;2.60;0.50;;;;;;;;;;5046341;28;20384;-81
2023/11/13 09:24:14;;;;;;;1.70;0.50;;;;;;;;;;5043698;28;20387;-82
2023/11/13 09:26:40;;;;;;;1.60;0.50;;;;;;;;;;5043616;28;20912;-82
2023/11/13 09:29:08;;;;;;;0.57;0.40;;;;;;;;;;5043626;28;20439;-82
2023/11/13 09:31:35;;;;;;;1.55;0.60;;;;;;;;;;5044039;28;20463;-84
2023/11/13 09:34:01;;;;;;;1.40;0.50;;;;;;;;;;5045961;28;20375;-85
2023/11/13 09:36:27;;;;;;;1.42;0.70;;;;;;;;;;5025625;28;20749;-84
2023/11/13 09:38:53;;;;;;;1.80;0.50;;;;;;;;;;5045085;28;20424;-84
2023/11/13 09:41:22;;;;;;;1.42;0.70;;;;;;;;;;5045099;28;20429;-84
2023/11/13 09:43:48;;;;;;;1.70;0.73;;;;;;;;;;5044758;28;20486;-85
2023/11/13 09:46:16;;;;;;;1.95;0.70;;;;;;;;;;5043861;28;20387;-84
2023/11/13 09:48:46;;;;;;;1.48;0.70;;;;;;;;;;5043760;28;20389;-84
2023/11/13 09:51:17;;;;;;;4.38;0.70;;;;;;;;;;5025478;28;20395;-84
2023/11/13 09:53:44;;;;;;;1.88;0.50;;;;;;;;;;5024611;28;20384;-85
2023/11/13 09:56:15;;;;;;;1.90;0.80;;;;;;;;;;5041814;28;20853;-85
2023/11/13 09:58:41;;;;;;;2.20;0.60;;;;;;;;;;5032389;28;20419;-85
2023/11/13 10:01:10;;;;;;;1.02;0.60;;;;;;;;;;5039184;28;20871;-85
2023/11/13 10:03:40;;;;;;;1.02;0.80;;;;;;;;;;5021181;28;20395;-85
2023/11/13 10:06:10;;;;;;;1.85;0.70;;;;;;;;;;5040431;28;20904;-85
2023/11/13 10:08:44;;;;;;;1.40;0.60;;;;;;;;;;5041479;28;20391;-84
2023/11/13 10:11:11;;;;;;;1.95;0.80;;;;;;;;;;5039872;28;20399;-85
2023/11/13 10:13:37;;;;;;;1.45;0.70;;;;;;;;;;5036012;28;20383;-85
2023/11/13 10:16:18;;;;;;;1.88;0.70;;;;;;;;;;5040044;28;20382;-85
2023/11/13 10:18:44;;;;;;;0.93;0.63;;;;;;;;;;5041452;28;20454;-86
2023/11/13 10:21:19;;;;;;;1.77;0.68;;;;;;;;;;5022624;28;20387;-85
2023/11/13 10:23:45;;;;;;;2.95;0.90;;;;;;;;;;5022009;28;20391;-86
2023/11/13 10:26:14;;;;;;;3.40;1.30;;;;;;;;;;5040322;28;20919;-85
2023/11/13 10:28:41;;;;;;;2.08;0.75;;;;;;;;;;5040705;28;20783;-83
2023/11/13 10:31:13;;;;;;;2.55;0.85;;;;;;;;;;5034438;28;20892;-84
2023/11/13 10:33:42;;;;;;;2.78;1.30;;;;;;;;;;5036343;28;20387;-84
2023/11/13 10:36:17;;;;;;;2.72;1.17;;;;;;;;;;5036276;28;21060;-84
2023/11/13 10:38:51;;;;;;;2.55;1.23;;;;;;;;;;5037796;28;20417;-84
2023/11/13 10:41:21;;;;;;;1.83;1.02;;;;;;;;;;5036806;28;20529;-84
2023/11/13 10:43:47;;;;;;;2.85;0.90;;;;;;;;;;5038518;28;20872;-84
2023/11/13 10:46:27;;;;;;;2.08;1.10;;;;;;;;;;5038604;28;20397;-84
2023/11/13 10:48:57;;;;;;;3.08;1.00;;;;;;;;;;5019752;28;20881;-83
2023/11/13 10:51:25;;;;;;;3.38;1.17;;;;;;;;;;5037811;28;20387;-84
2023/11/13 10:53:53;;;;;;;1.93;1.10;;;;;;;;;;5039422;28;20518;-84
2023/11/13 10:56:19;;;;;;;2.78;1.02;;;;;;;;;;5038676;28;20733;-83
2023/11/13 10:58:47;;;;;;;2.13;0.80;;;;;;;;;;5038134;28;20419;-83
2023/11/13 11:01:19;;;;;;;2.63;1.17;;;;;;;;;;5055100;28;20411;-84
2023/11/13 11:03:46;;;;;;;4.60;1.20;;;;;;;;;;5039373;28;20395;-84
2023/11/13 11:06:14;;;;;;;3.30;1.00;;;;;;;;;;5039328;28;20387;-84
2023/11/13 11:08:43;;;;;;;3.25;1.00;;;;;;;;;;5039202;28;20391;-84
2023/11/13 11:11:11;;;;;;;1.98;1.00;;;;;;;;;;5038809;28;20394;-84
2023/11/13 11:13:39;;;;;;;2.20;1.08;;;;;;;;;;5039636;28;20402;-84
2023/11/13 11:16:23;;;;;;;2.80;1.10;;;;;;;;;;5039559;28;20379;-84
2023/11/13 11:19:05;;;;;;;1.90;0.90;;;;;;;;;;5040045;28;20395;-83
2023/11/13 11:21:31;;;;;;;3.13;1.20;;;;;;;;;;5038826;28;20399;-84
2023/11/13 11:24:07;;;;;;;2.10;1.10;;;;;;;;;;5039387;28;20453;-84
2023/11/13 11:26:52;;;;;;;1.83;1.30;;;;;;;;;;5039419;28;20425;-84
2023/11/13 11:29:31;;;;;;;2.13;1.13;;;;;;;;;;5039278;28;20376;-84
2023/11/13 11:31:59;;;;;;;2.30;0.93;;;;;;;;;;5039136;28;20437;-84
2023/11/13 11:34:28;;;;;;;2.10;1.00;;;;;;;;;;5038595;28;20406;-84
2023/11/13 11:36:57;;;;;;;3.00;1.00;;;;;;;;;;5038710;28;20411;-84
2023/11/13 11:39:25;;;;;;;2.83;1.00;;;;;;;;;;5038668;28;20391;-84
2023/11/13 11:41:51;;;;;;;1.65;0.98;;;;;;;;;;5039135;28;20376;-84
2023/11/13 11:44:45;;;;;;;1.67;1.10;;;;;;;;;;5057181;28;20386;-84
2023/11/13 11:47:23;;;;;;;1.88;1.10;;;;;;;;;;5057434;28;20775;-83
2023/11/13 11:49:50;;;;;;;2.20;1.02;;;;;;;;;;5042478;28;20390;-84
2023/11/13 11:52:16;;;;;;;2.15;0.95;;;;;;;;;;5043398;28;20876;-84
2023/11/13 11:54:43;;;;;;;6.00;1.10;;;;;;;;;;5057430;28;20776;-84
2023/11/13 11:57:13;;;;;;;2.30;1.17;;;;;;;;;;5042353;28;20752;-84
2023/11/13 11:59:42;;;;;;;3.30;1.10;;;;;;;;;;5041338;28;20416;-84
2023/11/13 12:02:08;;;;;;;2.88;1.20;;;;;;;;;;5041564;28;20401;-84
2023/11/13 12:04:34;;;;;;;2.78;1.17;;;;;;;;;;5041367;28;20387;-84
2023/11/13 12:07:01;;;;;;;2.90;1.40;;;;;;;;;;5040792;28;20387;-84
2023/11/13 12:09:30;;;;;;;3.70;1.20;;;;;;;;;;5041439;28;20394;-84
2023/11/13 12:11:59;;;;;;;2.40;1.17;;;;;;;;;;5041427;28;20425;-84
2023/11/13 12:14:26;;;;;;;2.50;1.27;;;;;;;;;;5055954;28;20399;-84
2023/11/13 12:16:52;;;;;;;2.40;1.20;;;;;;;;;;5041166;28;20889;-83
2023/11/13 12:19:18;;;;;;;2.00;1.13;;;;;;;;;;5040762;28;20393;-84
2023/11/13 12:21:45;;;;;;;2.13;1.23;;;;;;;;;;5041129;28;20382;-84
2023/11/13 12:24:12;;;;;;;2.10;1.30;;;;;;;;;;5040072;28;20932;-83
2023/11/13 12:26:39;;;;;;;2.65;1.17;;;;;;;;;;5026884;28;20385;-84
2023/11/13 12:29:15;;;;;;;2.67;1.30;;;;;;;;;;5020805;28;20387;-84
2023/11/13 12:31:41;;;;;;;4.53;1.30;;;;;;;;;;5020725;28;20389;-83
2023/11/13 12:34:07;;;;;;;2.80;1.10;;;;;;;;;;5020821;28;20862;-84
2023/11/13 12:36:34;;;;;;;2.17;1.15;;;;;;;;;;5021574;28;20712;-84
2023/11/13 12:39:04;;;;;;;3.40;1.30;;;;;;;;;;5020974;28;20396;-83
2023/11/13 12:41:30;;;;;;;2.28;1.25;;;;;;;;;;5021400;28;20877;-83
2023/11/13 12:43:57;;;;;;;3.13;1.52;;;;;;;;;;5032818;28;20442;-83
2023/11/13 12:46:23;;;;;;;2.40;1.33;;;;;;;;;;5022967;28;20469;-84
2023/11/13 12:48:50;;;;;;;2.67;1.20;;;;;;;;;;5041906;28;20475;-83
2023/11/13 12:51:17;;;;;;;2.67;1.20;;;;;;;;;;5042205;28;20379;-83
2023/11/13 12:53:49;;;;;;;3.08;1.38;;;;;;;;;;5041481;28;20394;-84
2023/11/13 12:56:16;;;;;;;2.72;1.58;;;;;;;;;;5041581;28;20728;-84
2023/11/13 12:58:42;;;;;;;3.95;1.80;;;;;;;;;;5023304;28;20828;-83
2023/11/13 13:01:11;;;;;;;2.63;1.40;;;;;;;;;;5041838;28;20375;-84
2023/11/13 13:03:37;;;;;;;3.22;1.55;;;;;;;;;;5022842;28;20403;-83
2023/11/13 13:06:08;;;;;;;3.17;1.20;;;;;;;;;;5040997;28;20375;-84
2023/11/13 13:08:35;;;;;;;2.83;1.48;;;;;;;;;;5040438;28;20399;-84
2023/11/13 13:11:01;;;;;;;1.93;1.40;;;;;;;;;;5041520;28;20387;-84
2023/11/13 13:13:27;;;;;;;2.25;1.20;;;;;;;;;;5040655;28;20395;-84
2023/11/13 13:15:53;;;;;;;1.80;1.25;;;;;;;;;;5040244;28;20737;-84
2023/11/13 13:18:20;;;;;;;1.70;1.20;;;;;;;;;;5040576;28;20417;-84
2023/11/13 13:20:46;;;;;;;3.33;1.38;;;;;;;;;;5040905;28;20380;-83
2023/11/13 13:23:15;;;;;;;3.13;1.15;;;;;;;;;;5040387;28;20425;-84
2023/11/13 13:25:41;;;;;;;2.83;1.13;;;;;;;;;;5040528;28;20422;-83
2023/11/13 13:28:09;;;;;;;2.70;1.38;;;;;;;;;;5040615;28;20734;-84
2023/11/13 13:30:36;;;;;;;2.38;1.25;;;;;;;;;;5041034;28;20395;-84
2023/11/13 13:33:09;;;;;;;2.38;1.40;;;;;;;;;;5040585;28;20525;-84
2023/11/13 13:35:36;;;;;;;1.90;1.02;;;;;;;;;;5041357;28;20423;-84
2023/11/13 13:38:05;;;;;;;1.60;0.85;;;;;;;;;;5040877;28;20414;-83
2023/11/13 13:40:32;;;;;;;3.30;1.20;;;;;;;;;;5040721;28;20383;-84
2023/11/13 13:43:00;;;;;;;2.20;1.05;;;;;;;;;;5040155;28;20387;-84
2023/11/13 13:45:27;;;;;;;2.67;1.20;;;;;;;;;;5041115;28;20387;-84
2023/11/13 13:47:53;;;;;;;2.20;1.10;;;;;;;;;;5040994;28;20757;-84
2023/11/13 13:50:22;;;;;;;2.00;1.08;;;;;;;;;;5041214;28;20525;-84
2023/11/13 13:52:55;;;;;;;2.53;1.30;;;;;;;;;;5022592;28;20391;-84
2023/11/13 13:55:23;;;;;;;3.10;1.40;;;;;;;;;;5040018;28;20399;-83
2023/11/13 13:57:50;;;;;;;2.40;1.30;;;;;;;;;;5034641;28;20465;-84
2023/11/13 14:00:28;;;;;;;1.67;1.20;;;;;;;;;;5034925;28;20403;-83
2023/11/13 14:02:54;;;;;;;2.05;1.10;;;;;;;;;;5038579;28;20383;-84
2023/11/13 14:05:21;;;;;;;2.40;0.93;;;;;;;;;;5036401;28;20413;-84
2023/11/13 14:07:47;;;;;;;2.47;1.40;;;;;;;;;;5040355;28;20387;-84
2023/11/13 14:10:14;;;;;;;2.35;1.10;;;;;;;;;;5022668;28;20403;-85
2023/11/13 14:12:40;;;;;;;3.00;1.33;;;;;;;;;;5040533;28;20380;-84
2023/11/13 14:15:11;;;;;;;2.78;1.60;;;;;;;;;;5022027;28;20387;-85
2023/11/13 14:17:40;;;;;;;2.60;1.33;;;;;;;;;;5041084;28;20411;-85
2023/11/13 14:20:14;;;;;;;2.95;1.52;;;;;;;;;;5042011;28;20391;-84
2023/11/13 14:22:42;;;;;;;2.10;1.15;;;;;;;;;;5040330;28;20391;-84
2023/11/13 14:25:09;;;;;;;2.70;1.38;;;;;;;;;;5039828;28;20387;-84
2023/11/13 14:27:35;;;;;;;2.10;1.13;;;;;;;;;;5040981;28;20478;-84
2023/11/13 14:30:02;;;;;;;2.25;1.58;;;;;;;;;;5056835;28;20474;-85
2023/11/13 14:32:28;;;;;;;2.78;0.95;;;;;;;;;;5057667;28;20864;-84
2023/11/13 14:34:54;;;;;;;1.35;0.90;;;;;;;;;;5041372;28;20798;-84
2023/11/13 14:37:20;;;;;;;2.28;0.98;;;;;;;;;;5040932;28;20471;-84
2023/11/13 14:39:46;;;;;;;2.83;1.17;;;;;;;;;;5040419;28;20433;-84
2023/11/13 14:42:12;;;;;;;1.75;0.95;;;;;;;;;;5038735;28;20728;-84
2023/11/13 14:44:38;;;;;;;1.73;1.20;;;;;;;;;;5054628;28;20427;-85